createdAt,value
2019-06-08T00:00:50.032Z,100.00
2019-06-08T00:03:18.592Z,100.00
2019-06-08T00:05:48.317Z,100.00
2019-06-08T00:08:16.854Z,100.00
2019-06-08T00:10:46.690Z,100.00
2019-06-08T00:13:15.185Z,100.00
2019-06-08T00:15:43.446Z,100.00
2019-06-08T00:18:11.735Z,100.00
2019-06-08T00:20:40.035Z,100.00
2019-06-08T00:23:08.315Z,100.00
2019-06-08T00:25:36.599Z,100.00
2019-06-08T00:28:04.887Z,100.00
2019-06-08T00:30:33.186Z,100.00
2019-06-08T00:33:01.478Z,100.00
2019-06-08T00:35:29.751Z,100.00
2019-06-08T00:37:58.043Z,100.00
2019-06-08T00:40:26.317Z,100.00
2019-06-08T00:42:54.617Z,100.00
2019-06-08T00:45:23.578Z,100.00
2019-06-08T00:47:52.921Z,100.00
2019-06-08T00:50:55.315Z,100.00
2019-06-08T00:53:23.590Z,100.00
2019-06-08T00:55:51.871Z,100.00
2019-06-08T00:58:20.454Z,100.00
2019-06-08T01:00:50.177Z,100.00
2019-06-08T01:03:19.601Z,100.00
2019-06-08T01:05:48.486Z,100.00
2019-06-08T01:08:16.814Z,100.00
2019-06-08T01:10:45.309Z,100.00
2019-06-08T01:13:13.610Z,100.00
2019-06-08T01:15:41.857Z,100.00
2019-06-08T01:18:10.142Z,100.00
2019-06-08T01:20:38.451Z,100.00
2019-06-08T01:23:06.805Z,100.00
2019-06-08T01:25:35.090Z,100.00
2019-06-08T01:28:03.383Z,100.00
2019-06-08T01:30:31.649Z,100.00
2019-06-08T01:32:59.930Z,100.00
2019-06-08T01:35:28.884Z,100.00
2019-06-08T01:38:38.245Z,100.00
2019-06-08T01:41:06.518Z,100.00
2019-06-08T01:43:34.813Z,100.00
2019-06-08T01:46:03.082Z,100.00
2019-06-08T01:48:32.347Z,100.00
2019-06-08T01:51:01.414Z,100.00
2019-06-08T01:53:31.101Z,100.00
2019-06-08T01:55:59.697Z,100.00
2019-06-08T01:58:29.347Z,100.00
2019-06-08T02:00:57.981Z,100.00
2019-06-08T02:03:26.409Z,100.00
2019-06-08T02:05:54.640Z,100.00
2019-06-08T02:08:24.315Z,100.00
2019-06-08T02:10:52.940Z,100.00
2019-06-08T02:13:21.221Z,100.00
2019-06-08T02:15:49.517Z,100.00
2019-06-08T02:18:17.801Z,100.00
2019-06-08T02:20:46.078Z,100.00
2019-06-08T02:23:14.355Z,100.00
2019-06-08T02:25:42.644Z,100.00
2019-06-08T02:28:10.929Z,100.00
2019-06-08T02:30:41.869Z,100.00
2019-06-08T02:33:09.205Z,100.00
2019-06-08T02:35:37.921Z,100.00
2019-06-08T02:38:47.502Z,100.00
2019-06-08T02:41:15.779Z,100.00
2019-06-08T02:43:44.047Z,100.00
2019-06-08T02:46:12.330Z,100.00
2019-06-08T02:49:00.305Z,100.00
2019-06-08T02:51:10.685Z,100.00
2019-06-08T02:54:19.007Z,100.00
2019-06-08T02:57:21.210Z,100.00
2019-06-08T03:00:23.345Z,100.00
2019-06-08T03:03:25.452Z,100.00
2019-06-08T03:05:53.745Z,100.00
2019-06-08T03:08:22.037Z,100.00
2019-06-08T03:11:09.690Z,100.00
2019-06-08T03:13:40.009Z,100.00
2019-06-08T03:16:08.373Z,100.00
2019-06-08T03:18:38.303Z,100.00
2019-06-08T03:21:06.670Z,100.00
2019-06-08T03:23:36.275Z,100.00
2019-06-08T03:26:05.021Z,100.00
2019-06-08T03:28:35.609Z,100.00
2019-06-08T03:31:03.331Z,100.00
2019-06-08T03:33:34.600Z,100.00
2019-06-08T03:36:01.662Z,100.00
2019-06-08T03:38:29.921Z,100.00
2019-06-08T03:40:58.197Z,100.00
2019-06-08T03:43:26.475Z,100.00
2019-06-08T03:45:54.778Z,100.00
2019-06-08T03:48:23.064Z,100.00
2019-06-08T03:50:51.344Z,100.00
2019-06-08T03:53:19.630Z,100.00
2019-06-08T03:55:47.918Z,100.00
2019-06-08T03:58:16.214Z,100.00
2019-06-08T04:01:17.811Z,100.00
2019-06-08T04:03:46.456Z,100.00
2019-06-08T04:08:47.391Z,100.00
2019-06-08T04:11:15.352Z,100.00
2019-06-08T04:13:56.548Z,100.00
2019-06-08T04:16:24.834Z,100.00
2019-06-08T04:18:53.135Z,100.00
2019-06-08T04:21:21.438Z,100.00
2019-06-08T04:23:50.619Z,100.00
2019-06-08T04:26:19.762Z,100.00
2019-06-08T04:28:49.632Z,100.00
2019-06-08T04:31:18.069Z,100.00
2019-06-08T04:33:46.791Z,100.00
2019-06-08T04:36:16.522Z,100.00
2019-06-08T04:38:45.695Z,100.00
2019-06-08T04:41:14.823Z,100.00
2019-06-08T04:43:45.024Z,100.00
2019-06-08T04:46:13.530Z,100.00
2019-06-08T04:48:43.115Z,100.00
2019-06-08T04:51:11.828Z,100.00
2019-06-08T04:53:40.901Z,100.00
2019-06-08T04:56:09.823Z,100.00
2019-06-08T04:58:39.886Z,100.00
2019-06-08T05:01:08.114Z,100.00
2019-06-08T05:03:36.405Z,100.00
2019-06-08T05:06:04.680Z,100.00
2019-06-08T05:08:32.951Z,100.00
2019-06-08T05:11:01.246Z,100.00
2019-06-08T05:13:29.515Z,100.00
2019-06-08T05:15:57.803Z,100.00
2019-06-08T05:18:26.242Z,100.00
2019-06-08T05:20:54.553Z,100.00
2019-06-08T05:23:22.807Z,100.00
2019-06-08T05:25:51.094Z,100.00
2019-06-08T05:28:19.374Z,100.00
2019-06-08T05:30:47.648Z,100.00
2019-06-08T05:33:15.928Z,100.00
2019-06-08T05:35:45.477Z,100.00
2019-06-08T05:38:14.290Z,100.00
2019-06-08T05:40:43.597Z,100.00
2019-06-08T05:43:12.631Z,100.00
2019-06-08T05:45:41.527Z,100.00
2019-06-08T05:48:10.944Z,100.00
2019-06-08T05:50:55.895Z,100.00
2019-06-08T05:53:10.013Z,100.00
2019-06-08T05:55:39.707Z,100.00
2019-06-08T05:58:08.308Z,100.00
2019-06-08T06:00:36.588Z,100.00
2019-06-08T06:03:04.871Z,100.00
2019-06-08T06:05:33.151Z,100.00
2019-06-08T06:08:01.491Z,100.00
2019-06-08T06:10:29.738Z,100.00
2019-06-08T06:12:58.018Z,100.00
2019-06-08T06:15:26.306Z,100.00
2019-06-08T06:17:54.606Z,100.00
2019-06-08T06:20:22.886Z,100.00
2019-06-08T06:22:52.612Z,100.00
2019-06-08T06:28:00.226Z,100.00
2019-06-08T06:30:28.503Z,99.34
2019-06-08T06:32:56.783Z,99.54
2019-06-08T06:35:25.076Z,100.00
2019-06-08T06:37:53.363Z,100.00
2019-06-08T06:40:21.631Z,99.74
2019-06-08T06:42:50.101Z,97.70
2019-06-08T06:45:18.434Z,98.50
2019-06-08T06:47:48.316Z,96.16
2019-06-08T06:50:16.899Z,93.88
2019-06-08T06:52:46.591Z,94.18
2019-06-08T06:55:15.366Z,94.03
2019-06-08T06:57:45.018Z,89.63
2019-06-08T07:00:13.898Z,91.10
2019-06-08T07:02:43.522Z,87.29
2019-06-08T07:05:12.222Z,92.62
2019-06-08T07:07:40.497Z,89.89
2019-06-08T07:10:08.940Z,89.53
2019-06-08T07:12:37.225Z,90.10
2019-06-08T07:15:46.977Z,88.33
2019-06-08T07:18:15.555Z,88.41
2019-06-08T07:20:43.839Z,83.82
2019-06-08T07:23:12.112Z,82.05
2019-06-08T07:25:40.383Z,83.62
2019-06-08T07:28:28.021Z,82.08
2019-06-08T07:30:56.322Z,82.08
2019-06-08T07:33:24.632Z,80.46
2019-06-08T07:35:53.387Z,80.67
2019-06-08T07:38:22.889Z,79.18
2019-06-08T07:40:51.970Z,80.30
2019-06-08T07:43:21.180Z,80.71
2019-06-08T07:45:49.951Z,79.24
2019-06-08T07:48:18.775Z,76.99
2019-06-08T07:50:48.359Z,78.14
2019-06-08T07:53:17.145Z,77.46
2019-06-08T07:55:45.630Z,76.00
2019-06-08T07:58:13.881Z,77.30
2019-06-08T08:00:42.190Z,76.12
2019-06-08T08:03:10.471Z,77.30
2019-06-08T08:05:38.753Z,77.78
2019-06-08T08:08:07.041Z,79.01
2019-06-08T08:10:35.330Z,77.46
2019-06-08T08:13:03.642Z,79.57
2019-06-08T08:15:31.911Z,80.23
2019-06-08T08:18:00.269Z,79.56
2019-06-08T08:20:28.533Z,83.34
2019-06-08T08:23:03.606Z,81.29
2019-06-08T08:25:28.198Z,81.67
2019-06-08T08:27:59.414Z,81.53
2019-06-08T08:33:07.829Z,80.73
2019-06-08T08:38:41.126Z,80.08
2019-06-08T08:43:37.980Z,75.87
2019-06-08T08:46:07.726Z,74.79
2019-06-08T08:48:37.715Z,76.20
2019-06-08T08:51:08.357Z,74.25
2019-06-08T08:53:37.482Z,75.16
2019-06-08T08:56:18.136Z,75.09
2019-06-08T08:58:47.802Z,73.41
2019-06-08T09:01:29.279Z,73.93
2019-06-08T09:04:03.278Z,73.07
2019-06-08T09:09:48.219Z,73.24
2019-06-08T09:12:18.299Z,71.08
2019-06-08T09:14:48.090Z,72.76
2019-06-08T09:17:18.130Z,72.24
2019-06-08T09:19:48.162Z,72.20
2019-06-08T09:22:18.791Z,70.47
2019-06-08T09:24:48.579Z,69.16
2019-06-08T09:27:29.292Z,70.54
2019-06-08T09:30:00.947Z,69.78
2019-06-08T09:32:28.238Z,67.63
2019-06-08T09:35:02.316Z,67.81
2019-06-08T09:37:28.822Z,68.26
2019-06-08T09:39:58.965Z,66.92
2019-06-08T09:42:28.500Z,66.53
2019-06-08T09:45:00.357Z,67.33
2019-06-08T09:47:28.066Z,67.39
2019-06-08T09:50:01.425Z,65.44
2019-06-08T09:53:23.132Z,65.04
2019-06-08T09:55:38.257Z,65.30
2019-06-08T09:58:11.491Z,68.19
2019-06-08T10:00:49.537Z,64.95
2019-06-08T10:03:18.707Z,66.69
2019-06-08T10:05:48.480Z,67.03
2019-06-08T10:11:27.906Z,65.83
2019-06-08T10:13:59.474Z,63.11
2019-06-08T10:16:27.913Z,63.31
2019-06-08T10:18:57.651Z,63.28
2019-06-08T10:21:28.268Z,60.58
2019-06-08T10:23:58.302Z,63.99
2019-06-08T10:26:27.954Z,62.73
2019-06-08T10:28:58.675Z,63.46
2019-06-08T10:31:36.449Z,65.61
2019-06-08T10:33:58.608Z,63.51
2019-06-08T10:36:28.181Z,64.26
2019-06-08T10:38:56.751Z,62.82
2019-06-08T10:41:27.842Z,63.05
2019-06-08T10:43:57.182Z,62.80
2019-06-08T10:46:26.023Z,60.49
2019-06-08T10:48:54.322Z,61.61
2019-06-08T10:51:22.608Z,61.12
2019-06-08T10:53:53.087Z,63.46
2019-06-08T10:56:20.885Z,63.27
2019-06-08T10:58:49.749Z,64.84
2019-06-08T11:01:19.213Z,65.02
2019-06-08T11:03:48.926Z,63.25
2019-06-08T11:08:58.584Z,63.31
2019-06-08T11:11:28.509Z,63.96
2019-06-08T11:13:58.397Z,64.12
2019-06-08T11:19:07.634Z,62.09
2019-06-08T11:21:38.370Z,61.68
2019-06-08T11:24:19.429Z,63.41
2019-06-08T11:26:57.623Z,61.95
2019-06-08T11:29:38.368Z,60.36
2019-06-08T11:32:10.960Z,61.20
2019-06-08T11:34:37.697Z,62.38
2019-06-08T11:37:11.501Z,61.00
2019-06-08T11:39:38.255Z,63.23
2019-06-08T11:42:09.799Z,62.68
2019-06-08T11:44:38.989Z,63.78
2019-06-08T11:47:09.744Z,62.37
2019-06-08T11:49:36.938Z,63.71
2019-06-08T11:52:06.727Z,61.50
2019-06-08T11:54:38.098Z,61.61
2019-06-08T11:57:05.378Z,62.26
2019-06-08T12:00:23.685Z,64.95
2019-06-08T12:02:43.700Z,63.51
2019-06-08T12:05:14.178Z,63.72
2019-06-08T12:07:42.005Z,62.95
2019-06-08T12:10:44.090Z,65.80
2019-06-08T12:13:13.208Z,62.59
2019-06-08T12:15:42.390Z,61.65
2019-06-08T12:18:12.403Z,61.95
2019-06-08T12:23:19.747Z,60.74
2019-06-08T12:25:48.208Z,60.65
2019-06-08T12:28:17.825Z,62.72
2019-06-08T12:30:47.892Z,62.93
2019-06-08T12:33:18.642Z,64.76
2019-06-08T12:35:47.707Z,63.50
2019-06-08T12:38:19.081Z,64.04
2019-06-08T12:40:48.588Z,65.77
2019-06-08T12:43:19.820Z,64.78
2019-06-08T12:45:46.652Z,62.28
2019-06-08T12:48:19.667Z,61.10
2019-06-08T12:50:44.944Z,61.25
2019-06-08T12:53:16.402Z,61.00
2019-06-08T12:55:43.251Z,60.36
2019-06-08T12:58:12.977Z,63.12
2019-06-08T13:01:16.520Z,60.23
2019-06-08T13:03:44.780Z,60.32
2019-06-08T13:06:14.072Z,59.29
2019-06-08T13:08:43.061Z,59.16
2019-06-08T13:11:12.367Z,59.98
2019-06-08T13:13:41.873Z,59.72
2019-06-08T13:16:10.539Z,58.16
2019-06-08T13:18:40.835Z,59.44
2019-06-08T13:21:23.107Z,58.55
2019-06-08T13:23:41.287Z,59.43
2019-06-08T13:26:11.522Z,61.33
2019-06-08T13:28:40.737Z,59.05
2019-06-08T13:31:11.646Z,58.92
2019-06-08T13:33:39.295Z,60.23
2019-06-08T13:36:07.566Z,58.75
2019-06-08T13:38:37.952Z,60.33
2019-06-08T13:41:05.867Z,57.92
2019-06-08T13:43:34.179Z,57.27
2019-06-08T13:46:02.453Z,57.80
2019-06-08T13:48:30.733Z,59.55
2019-06-08T13:50:59.298Z,58.04
2019-06-08T13:53:31.636Z,57.14
2019-06-08T13:58:33.203Z,59.06
2019-06-08T14:00:59.680Z,57.92
2019-06-08T14:03:27.705Z,57.25
2019-06-08T14:05:56.760Z,57.78
2019-06-08T14:08:25.881Z,57.63
2019-06-08T14:11:00.507Z,59.45
2019-06-08T14:13:38.578Z,58.40
2019-06-08T14:16:08.613Z,60.45
2019-06-08T14:18:38.585Z,59.21
2019-06-08T14:21:06.838Z,58.81
2019-06-08T14:23:35.134Z,57.95
2019-06-08T14:26:03.409Z,58.38
2019-06-08T14:28:31.680Z,58.89
2019-06-08T14:30:59.957Z,57.46
2019-06-08T14:33:32.990Z,57.30
2019-06-08T14:35:59.113Z,56.99
2019-06-08T14:41:21.007Z,57.72
2019-06-08T14:43:50.761Z,57.19
2019-06-08T14:46:20.820Z,56.89
2019-06-08T14:48:49.296Z,58.56
2019-06-08T14:51:18.702Z,57.64
2019-06-08T14:56:29.227Z,58.19
2019-06-08T14:58:58.062Z,57.20
2019-06-08T15:01:29.732Z,56.43
2019-06-08T15:04:15.982Z,56.83
2019-06-08T15:06:58.623Z,56.67
2019-06-08T15:09:27.628Z,56.67
2019-06-08T15:11:58.200Z,57.14
2019-06-08T15:14:30.646Z,55.49
2019-06-08T15:16:59.067Z,55.33
2019-06-08T15:19:29.042Z,54.27
2019-06-08T15:21:56.993Z,54.83
2019-06-08T15:24:25.281Z,54.13
2019-06-08T15:26:53.600Z,54.76
2019-06-08T15:29:22.878Z,57.91
2019-06-08T15:34:32.953Z,57.01
2019-06-08T15:37:00.920Z,57.48
2019-06-08T15:39:32.540Z,55.99
2019-06-08T15:42:00.219Z,55.52
2019-06-08T15:44:30.682Z,57.34
2019-06-08T15:46:59.185Z,56.35
2019-06-08T15:49:29.466Z,55.40
2019-06-08T15:51:57.956Z,57.82
2019-06-08T15:54:30.051Z,57.54
2019-06-08T15:56:58.485Z,57.15
2019-06-08T15:59:31.148Z,55.56
2019-06-08T16:01:57.478Z,56.12
2019-06-08T16:04:25.800Z,55.53
2019-06-08T16:06:54.052Z,55.93
2019-06-08T16:09:22.355Z,56.51
2019-06-08T16:11:50.632Z,57.95
2019-06-08T16:14:18.898Z,57.63
2019-06-08T16:16:47.283Z,57.47
2019-06-08T16:19:15.602Z,56.52
2019-06-08T16:21:43.895Z,54.46
2019-06-08T16:24:12.178Z,58.08
2019-06-08T16:26:53.767Z,56.03
2019-06-08T16:29:22.669Z,57.04
2019-06-08T16:31:50.933Z,55.60
2019-06-08T16:34:19.215Z,57.48
2019-06-08T16:36:47.570Z,57.37
2019-06-08T16:39:15.840Z,55.80
2019-06-08T16:41:44.114Z,55.95
2019-06-08T16:44:12.436Z,56.87
2019-06-08T16:46:40.722Z,57.37
2019-06-08T16:49:08.989Z,56.62
2019-06-08T16:51:37.287Z,56.79
2019-06-08T16:54:05.547Z,57.00
2019-06-08T16:56:34.195Z,58.30
2019-06-08T16:59:03.832Z,59.59
2019-06-08T17:01:32.838Z,56.82
2019-06-08T17:04:21.507Z,56.73
2019-06-08T17:06:49.783Z,56.73
2019-06-08T17:09:18.053Z,56.75
2019-06-08T17:11:46.352Z,56.33
2019-06-08T17:14:14.629Z,57.45
2019-06-08T17:16:42.907Z,55.69
2019-06-08T17:19:11.174Z,56.15
2019-06-08T17:21:40.500Z,56.46
2019-06-08T17:24:09.523Z,56.24
2019-06-08T17:26:38.735Z,56.87
2019-06-08T17:29:07.827Z,57.94
2019-06-08T17:31:37.211Z,58.02
2019-06-08T17:34:06.078Z,61.21
2019-06-08T17:36:34.622Z,60.07
2019-06-08T17:39:02.901Z,59.69
2019-06-08T17:41:31.917Z,62.30
2019-06-08T17:44:01.180Z,59.46
2019-06-08T17:46:29.468Z,60.92
2019-06-08T17:48:57.759Z,59.65
2019-06-08T17:51:26.040Z,61.66
2019-06-08T17:53:54.306Z,63.77
2019-06-08T17:56:22.609Z,61.62
2019-06-08T17:58:50.879Z,63.75
2019-06-08T18:01:19.162Z,61.20
2019-06-08T18:03:48.238Z,60.90
2019-06-08T18:06:17.970Z,61.52
2019-06-08T18:08:48.036Z,59.56
2019-06-08T18:11:17.491Z,61.59
2019-06-08T18:13:48.329Z,60.16
2019-06-08T18:16:17.540Z,59.51
2019-06-08T18:18:47.947Z,60.74
2019-06-08T18:23:45.339Z,63.23
2019-06-08T18:26:13.630Z,61.69
2019-06-08T18:28:42.685Z,62.87
2019-06-08T18:31:11.910Z,63.99
2019-06-08T18:33:43.590Z,63.29
2019-06-08T18:36:10.937Z,64.89
2019-06-08T18:38:40.927Z,65.16
2019-06-08T18:41:09.218Z,60.78
2019-06-08T18:43:40.000Z,60.81
2019-06-08T18:46:08.515Z,61.90
2019-06-08T18:48:39.918Z,60.08
2019-06-08T18:51:41.285Z,59.18
2019-06-08T18:54:14.669Z,61.64
2019-06-08T18:56:42.253Z,63.07
2019-06-08T18:59:10.615Z,64.17
2019-06-08T19:01:40.483Z,66.82
2019-06-08T19:04:08.891Z,68.50
2019-06-08T19:06:39.201Z,69.22
2019-06-08T19:09:42.327Z,68.22
2019-06-08T19:12:10.928Z,68.34
2019-06-08T19:14:40.368Z,71.14
2019-06-08T19:17:09.204Z,71.11
2019-06-08T19:19:42.267Z,70.68
2019-06-08T19:22:08.658Z,71.52
2019-06-08T19:24:40.779Z,72.80
2019-06-08T19:27:07.853Z,73.53
2019-06-08T19:32:07.437Z,71.88
2019-06-08T19:34:39.177Z,68.46
2019-06-08T19:37:07.970Z,70.85
2019-06-08T19:39:38.088Z,68.67
2019-06-08T19:42:07.999Z,68.27
2019-06-08T19:44:38.635Z,70.01
2019-06-08T19:47:08.085Z,70.28
2019-06-08T19:52:18.155Z,71.21
2019-06-08T19:54:48.354Z,71.64
2019-06-08T19:57:17.456Z,72.49
2019-06-08T19:59:45.669Z,72.15
2019-06-08T20:02:13.956Z,72.23
2019-06-08T20:04:42.814Z,73.38
2019-06-08T20:07:12.395Z,73.90
2019-06-08T20:09:41.105Z,73.36
2019-06-08T20:12:10.659Z,76.09
2019-06-08T20:14:38.936Z,74.77
2019-06-08T20:17:08.107Z,75.77
2019-06-08T20:19:37.440Z,75.57
2019-06-08T20:22:07.506Z,73.07
2019-06-08T20:24:37.738Z,75.89
2019-06-08T20:27:07.613Z,77.34
2019-06-08T20:29:37.984Z,77.35
2019-06-08T20:32:08.228Z,76.45
2019-06-08T20:34:38.085Z,76.07
2019-06-08T20:37:07.952Z,75.81
2019-06-08T20:39:38.004Z,76.87
2019-06-08T20:42:11.211Z,76.09
2019-06-08T20:44:37.660Z,75.59
2019-06-08T20:47:05.737Z,77.96
2019-06-08T20:49:34.030Z,79.02
2019-06-08T20:52:02.292Z,78.58
2019-06-08T20:54:30.577Z,77.47
2019-06-08T20:56:58.854Z,76.92
2019-06-08T20:59:33.209Z,77.96
2019-06-08T21:01:58.897Z,78.87
2019-06-08T21:04:27.640Z,78.69
2019-06-08T21:06:57.456Z,77.46
2019-06-08T21:09:27.938Z,77.63
2019-06-08T21:14:37.979Z,78.55
2019-06-08T21:17:07.733Z,77.82
2019-06-08T21:19:36.303Z,79.22
2019-06-08T21:22:04.604Z,77.87
2019-06-08T21:24:32.868Z,78.55
2019-06-08T21:27:01.274Z,78.99
2019-06-08T21:29:47.096Z,77.65
2019-06-08T21:32:02.512Z,78.62
2019-06-08T21:34:30.366Z,78.35
2019-06-08T21:37:00.859Z,77.50
2019-06-08T21:39:28.629Z,78.49
2019-06-08T21:42:01.332Z,78.86
2019-06-08T21:44:27.905Z,79.68
2019-06-08T21:47:00.414Z,79.81
2019-06-08T21:49:27.722Z,78.34
2019-06-08T21:51:59.551Z,79.29
2019-06-08T21:54:27.287Z,79.08
2019-06-08T21:56:59.279Z,79.24
2019-06-08T21:59:26.908Z,79.99
2019-06-08T22:01:59.117Z,78.83
2019-06-08T22:04:27.552Z,79.33
2019-06-08T22:06:59.028Z,79.25
2019-06-08T22:09:25.175Z,80.22
2019-06-08T22:11:54.393Z,78.34
2019-06-08T22:14:23.509Z,78.02
2019-06-08T22:16:52.514Z,78.84
2019-06-08T22:19:21.770Z,78.36
2019-06-08T22:21:52.074Z,77.66
2019-06-08T22:24:20.043Z,78.35
2019-06-08T22:26:48.321Z,77.85
2019-06-08T22:29:18.258Z,78.36
2019-06-08T22:31:47.870Z,78.99
2019-06-08T22:34:17.465Z,78.52
2019-06-08T22:36:47.815Z,79.05
2019-06-08T22:39:17.581Z,78.54
2019-06-08T22:41:47.778Z,78.51
2019-06-08T22:44:17.707Z,76.49
2019-06-08T22:46:47.899Z,77.88
2019-06-08T22:49:18.624Z,76.78
2019-06-08T22:51:47.711Z,78.13
2019-06-08T22:54:17.076Z,78.13
2019-06-08T22:56:47.802Z,78.78
2019-06-08T22:59:17.526Z,79.58
2019-06-08T23:01:47.565Z,79.89
2019-06-08T23:04:18.337Z,78.21
2019-06-08T23:06:47.637Z,78.62
2019-06-08T23:09:29.311Z,78.21
2019-06-08T23:12:01.110Z,79.54
2019-06-08T23:14:28.546Z,79.85
2019-06-08T23:17:00.437Z,79.37
2019-06-08T23:19:27.601Z,79.71
2019-06-08T23:21:58.276Z,78.62
2019-06-08T23:24:27.480Z,80.08
2019-06-08T23:26:55.867Z,79.93
2019-06-08T23:29:24.225Z,80.05
2019-06-08T23:31:52.503Z,81.52
2019-06-08T23:34:23.225Z,81.47
2019-06-08T23:36:58.562Z,80.17
2019-06-08T23:39:20.816Z,79.57
2019-06-08T23:41:49.096Z,80.57
2019-06-08T23:44:17.718Z,80.66
2019-06-08T23:46:47.703Z,80.53
2019-06-08T23:51:59.629Z,80.06
2019-06-08T23:54:27.993Z,80.02
2019-06-08T23:56:56.424Z,79.91
2019-06-08T23:59:24.695Z,79.91
